createdAt,value
2019-04-27T00:03:41.466Z,17.85
2019-04-27T00:08:48.537Z,16.05
2019-04-27T00:13:53.546Z,18.67
2019-04-27T00:19:10.829Z,15.23
2019-04-27T00:24:16.006Z,19.65
2019-04-27T00:29:19.876Z,25.45
2019-04-27T00:34:23.863Z,17.55
2019-04-27T00:39:29.319Z,17.87
2019-04-27T00:44:33.885Z,17.23
2019-04-27T00:49:37.895Z,12.33
2019-04-27T00:54:41.778Z,14.70
2019-04-27T00:59:56.196Z,16.95
2019-04-27T01:05:00.830Z,17.95
2019-04-27T01:10:07.253Z,17.50
2019-04-27T01:15:11.274Z,14.85
2019-04-27T01:20:16.237Z,14.60
2019-04-27T01:25:21.737Z,13.20
2019-04-27T01:30:28.845Z,15.65
2019-04-27T01:35:32.938Z,10.53
2019-04-27T01:40:38.193Z,11.35
2019-04-27T01:45:42.689Z,11.70
2019-04-27T01:50:46.599Z,6.90
2019-04-27T01:55:50.518Z,9.48
2019-04-27T02:01:14.225Z,8.50
2019-04-27T02:06:19.053Z,9.65
2019-04-27T02:11:24.185Z,21.07
2019-04-27T02:16:29.018Z,14.07
2019-04-27T02:21:33.699Z,12.95
2019-04-27T02:26:39.737Z,15.05
2019-04-27T02:31:53.789Z,9.83
2019-04-27T02:36:59.468Z,12.03
2019-04-27T02:42:03.256Z,15.38
2019-04-27T02:47:07.162Z,9.03
2019-04-27T02:52:21.711Z,8.95
2019-04-27T02:57:25.577Z,12.50
2019-04-27T03:02:33.818Z,7.87
2019-04-27T03:07:39.853Z,6.85
2019-04-27T03:12:44.881Z,5.03
2019-04-27T03:18:06.837Z,6.85
2019-04-27T03:23:11.947Z,4.47
2019-04-27T03:28:15.961Z,4.78
2019-04-27T03:33:22.315Z,6.95
2019-04-27T03:38:25.470Z,5.65
2019-04-27T03:43:30.202Z,7.70
2019-04-27T03:48:34.379Z,7.55
2019-04-27T03:53:57.329Z,5.28
2019-04-27T03:59:02.891Z,5.65
2019-04-27T04:04:06.769Z,4.60
2019-04-27T04:09:12.861Z,6.45
2019-04-27T04:14:20.295Z,7.28
2019-04-27T04:19:23.862Z,7.15
2019-04-27T04:24:30.912Z,7.35
2019-04-27T04:29:33.239Z,6.25
2019-04-27T04:34:37.112Z,6.80
2019-04-27T04:39:40.988Z,8.60
2019-04-27T04:44:56.081Z,9.23
2019-04-27T04:50:10.707Z,10.10
2019-04-27T04:55:06.066Z,9.28
2019-04-27T05:00:10.268Z,9.48
2019-04-27T05:05:14.175Z,9.48
2019-04-27T05:10:18.846Z,12.53
2019-04-27T05:15:22.913Z,11.22
2019-04-27T05:20:40.473Z,14.90
2019-04-27T05:25:44.345Z,16.10
2019-04-27T05:30:48.916Z,15.85
2019-04-27T05:35:53.003Z,14.60
2019-04-27T05:40:58.204Z,15.48
2019-04-27T05:46:15.652Z,15.50
2019-04-27T05:51:19.806Z,17.00
2019-04-27T05:56:23.789Z,19.00
2019-04-27T06:01:29.567Z,15.08
2019-04-27T06:06:33.272Z,14.50
2019-04-27T06:11:37.211Z,17.32
2019-04-27T06:16:41.122Z,18.35
2019-04-27T06:21:46.366Z,19.05
2019-04-27T06:26:50.286Z,15.78
2019-04-27T06:31:54.213Z,16.50
2019-04-27T06:36:59.742Z,16.37
2019-04-27T06:42:15.937Z,16.35
2019-04-27T06:47:09.388Z,17.07
2019-04-27T06:52:13.319Z,16.35
2019-04-27T06:57:17.248Z,16.32
2019-04-27T07:02:21.207Z,15.65
2019-04-27T07:07:25.127Z,16.17
2019-04-27T07:12:29.104Z,12.65
2019-04-27T07:17:33.024Z,11.38
2019-04-27T07:22:36.949Z,13.83
2019-04-27T07:27:40.856Z,15.90
2019-04-27T07:32:44.813Z,13.65
2019-04-27T07:37:48.963Z,12.82
2019-04-27T07:42:54.808Z,10.15
2019-04-27T07:47:59.145Z,10.08
2019-04-27T07:53:03.173Z,9.40
2019-04-27T07:58:08.803Z,10.15
2019-04-27T08:03:12.654Z,9.85
2019-04-27T08:08:16.602Z,10.43
2019-04-27T08:13:20.502Z,11.18
2019-04-27T08:18:24.425Z,12.30
2019-04-27T08:23:29.451Z,15.83
2019-04-27T08:28:38.637Z,12.88
2019-04-27T08:33:42.602Z,15.23
2019-04-27T08:38:46.501Z,14.95
2019-04-27T08:43:50.416Z,15.78
2019-04-27T08:48:54.518Z,15.93
2019-04-27T08:53:59.113Z,14.23
2019-04-27T08:59:03.243Z,15.48
2019-04-27T09:04:09.231Z,13.93
2019-04-27T09:09:23.517Z,13.15
2019-04-27T09:14:29.446Z,14.03
2019-04-27T09:19:44.197Z,15.85
2019-04-27T09:24:49.391Z,13.18
2019-04-27T09:29:53.528Z,12.05
2019-04-27T09:34:57.618Z,13.32
2019-04-27T09:40:01.665Z,13.55
2019-04-27T09:45:07.108Z,11.68
2019-04-27T09:50:11.324Z,11.78
2019-04-27T09:55:16.341Z,10.43
2019-04-27T10:00:21.966Z,11.80
2019-04-27T10:05:28.370Z,11.83
2019-04-27T10:10:32.145Z,13.08
2019-04-27T10:15:36.283Z,11.03
2019-04-27T10:20:41.059Z,12.35
2019-04-27T10:25:45.875Z,11.45
2019-04-27T10:30:51.235Z,12.07
2019-04-27T10:35:56.421Z,12.95
2019-04-27T10:41:00.866Z,10.90
2019-04-27T10:46:06.625Z,12.40
2019-04-27T10:51:11.891Z,9.03
2019-04-27T10:56:16.194Z,8.18
2019-04-27T11:01:26.573Z,8.53
2019-04-27T11:06:32.197Z,7.85
2019-04-27T11:11:36.490Z,7.20
2019-04-27T11:16:41.016Z,8.13
2019-04-27T11:21:45.868Z,7.80
2019-04-27T11:26:49.749Z,6.28
2019-04-27T11:31:55.533Z,7.47
2019-04-27T11:37:01.234Z,9.43
2019-04-27T11:42:05.467Z,7.72
2019-04-27T11:47:09.440Z,7.33
2019-04-27T11:52:13.502Z,6.72
2019-04-27T11:57:17.399Z,5.95
2019-04-27T12:02:21.246Z,8.45
2019-04-27T12:07:25.166Z,5.87
2019-04-27T12:12:29.060Z,6.25
2019-04-27T12:17:33.297Z,7.20
2019-04-27T12:22:37.253Z,5.45
2019-04-27T12:27:43.667Z,7.72
2019-04-27T12:32:47.653Z,8.98
2019-04-27T12:37:51.535Z,5.37
2019-04-27T12:42:55.503Z,5.08
2019-04-27T12:47:59.578Z,5.22
2019-04-27T12:53:14.089Z,6.42
2019-04-27T12:58:22.440Z,6.22
2019-04-27T13:03:26.520Z,5.08
2019-04-27T13:08:30.435Z,5.03
2019-04-27T13:13:34.554Z,8.93
2019-04-27T13:18:38.500Z,5.70
2019-04-27T13:23:42.389Z,5.40
2019-04-27T13:28:46.776Z,6.58
2019-04-27T13:33:50.746Z,3.92
2019-04-27T13:38:55.976Z,3.75
2019-04-27T13:43:59.925Z,4.75
2019-04-27T13:49:21.689Z,7.70
2019-04-27T13:54:29.007Z,5.65
2019-04-27T13:59:37.743Z,9.13
2019-04-27T14:04:41.734Z,4.15
2019-04-27T14:09:46.044Z,7.65
2019-04-27T14:14:50.334Z,4.55
2019-04-27T14:19:54.239Z,4.35
2019-04-27T14:24:58.491Z,5.15
2019-04-27T14:30:02.449Z,5.70
2019-04-27T14:35:08.401Z,3.27
2019-04-27T14:40:12.898Z,3.77
2019-04-27T14:45:18.820Z,3.37
2019-04-27T14:50:22.842Z,3.47
2019-04-27T14:55:28.236Z,2.95
2019-04-27T15:00:32.332Z,3.35
2019-04-27T15:05:36.184Z,7.12
2019-04-27T15:10:40.133Z,2.98
2019-04-27T15:15:44.048Z,3.05
2019-04-27T15:20:48.589Z,3.77
2019-04-27T15:25:53.451Z,5.62
2019-04-27T15:30:59.517Z,3.87
2019-04-27T15:36:22.820Z,5.30
2019-04-27T15:41:34.882Z,5.45
2019-04-27T15:46:40.695Z,5.40
2019-04-27T15:51:44.920Z,7.65
2019-04-27T15:56:50.389Z,7.10
2019-04-27T16:01:54.489Z,7.62
2019-04-27T16:07:00.543Z,3.40
2019-04-27T16:12:10.651Z,3.62
2019-04-27T16:17:11.623Z,5.33
2019-04-27T16:22:15.854Z,4.08
2019-04-27T16:27:20.167Z,4.05
2019-04-27T16:32:24.223Z,4.33
2019-04-27T16:37:44.637Z,4.75
2019-04-27T16:42:50.718Z,7.67
2019-04-27T16:47:56.686Z,3.37
2019-04-27T16:53:01.537Z,5.50
2019-04-27T16:58:11.104Z,6.08
2019-04-27T17:03:11.928Z,8.88
2019-04-27T17:08:22.320Z,6.65
2019-04-27T17:13:22.931Z,4.17
2019-04-27T17:18:40.638Z,6.37
2019-04-27T17:23:44.717Z,17.40
2019-04-27T17:28:50.912Z,7.42
2019-04-27T17:34:00.500Z,10.98
2019-04-27T17:39:08.469Z,4.58
2019-04-27T17:44:19.301Z,7.08
2019-04-27T17:49:18.929Z,8.40
2019-04-27T17:54:22.951Z,6.62
2019-04-27T17:59:27.095Z,7.55
2019-04-27T18:04:32.970Z,8.90
2019-04-27T18:09:40.369Z,10.50
2019-04-27T18:14:43.902Z,11.33
2019-04-27T18:19:49.388Z,12.68
2019-04-27T18:25:03.303Z,11.95
2019-04-27T18:30:21.803Z,14.18
2019-04-27T18:35:26.225Z,13.08
2019-04-27T18:40:32.275Z,13.48
2019-04-27T18:45:38.110Z,15.10
2019-04-27T18:51:00.104Z,17.45
2019-04-27T18:56:05.297Z,16.82
2019-04-27T19:01:09.458Z,25.82
2019-04-27T19:06:13.340Z,29.85
2019-04-27T19:11:18.772Z,35.17
2019-04-27T19:16:22.958Z,36.23
2019-04-27T19:21:28.807Z,39.30
2019-04-27T19:26:38.275Z,22.07
2019-04-27T19:31:48.198Z,21.60
2019-04-27T19:36:52.398Z,20.02
2019-04-27T19:42:00.787Z,25.68
2019-04-27T19:47:02.169Z,25.17
2019-04-27T19:52:06.419Z,25.15
2019-04-27T19:57:10.338Z,22.35
2019-04-27T20:02:15.777Z,20.80
2019-04-27T20:07:19.703Z,18.75
2019-04-27T20:12:23.656Z,14.30
2019-04-27T20:17:31.192Z,16.62
2019-04-27T20:22:37.081Z,19.87
2019-04-27T20:27:48.296Z,16.85
2019-04-27T20:32:46.667Z,16.95
2019-04-27T20:37:51.968Z,17.27
2019-04-27T20:42:55.939Z,15.48
2019-04-27T20:48:01.110Z,31.62
2019-04-27T20:53:06.740Z,14.20
2019-04-27T20:58:12.655Z,15.75
2019-04-27T21:03:18.287Z,14.30
2019-04-27T21:08:23.735Z,14.93
2019-04-27T21:13:27.612Z,16.35
2019-04-27T21:18:31.890Z,18.10
2019-04-27T21:23:35.922Z,18.95
2019-04-27T21:28:41.583Z,16.50
2019-04-27T21:33:45.351Z,20.48
2019-04-27T21:38:51.098Z,19.92
2019-04-27T21:43:54.793Z,16.95
2019-04-27T21:48:58.686Z,18.17
2019-04-27T21:54:09.858Z,16.73
2019-04-27T21:59:13.738Z,21.97
2019-04-27T22:04:17.698Z,21.85
2019-04-27T22:09:21.581Z,19.15
2019-04-27T22:14:25.558Z,18.87
2019-04-27T22:19:31.090Z,19.98
2019-04-27T22:24:36.690Z,17.02
2019-04-27T22:29:40.601Z,20.23
2019-04-27T22:34:44.476Z,16.85
2019-04-27T22:39:52.470Z,16.10
2019-04-27T22:44:57.034Z,17.02
2019-04-27T22:50:00.925Z,17.07
2019-04-27T22:55:06.547Z,17.30
2019-04-27T23:00:28.242Z,19.80
2019-04-27T23:05:32.873Z,17.87
2019-04-27T23:10:36.790Z,18.60
2019-04-27T23:15:43.252Z,18.55
2019-04-27T23:20:47.177Z,17.12
2019-04-27T23:25:51.503Z,17.82
2019-04-27T23:31:06.353Z,17.67
2019-04-27T23:36:11.492Z,20.62
2019-04-27T23:41:15.518Z,19.00
2019-04-27T23:46:21.369Z,19.05
2019-04-27T23:51:38.491Z,19.32
2019-04-27T23:56:42.418Z,21.85
